createdAt,value
2023-02-12T00:01:53.690Z,101520.56
2023-02-12T00:04:25.967Z,101523.05
2023-02-12T00:06:58.378Z,101527.45
2023-02-12T00:09:30.849Z,101535.32
2023-02-12T00:12:03.162Z,101542.37
2023-02-12T00:14:35.855Z,101555.35
2023-02-12T00:17:08.071Z,101558.21
2023-02-12T00:19:40.755Z,101568.10
2023-02-12T00:22:13.402Z,101586.84
2023-02-12T00:24:45.901Z,101594.64
2023-02-12T00:27:18.305Z,101582.10
2023-02-12T00:29:50.704Z,101580.70
2023-02-12T00:32:25.182Z,101586.73
2023-02-12T00:34:57.820Z,101602.30
2023-02-12T00:37:30.160Z,101599.95
2023-02-12T00:40:05.508Z,101598.91
2023-02-12T00:42:37.786Z,101604.77
2023-02-12T00:45:11.526Z,101612.11
2023-02-12T00:47:43.880Z,101613.11
2023-02-12T00:50:16.364Z,101612.20
2023-02-12T00:52:48.785Z,101611.93
2023-02-12T00:55:22.416Z,101621.52
2023-02-12T00:57:54.712Z,101619.52
2023-02-12T01:00:27.531Z,101617.02
2023-02-12T01:03:00.033Z,101621.11
2023-02-12T01:05:32.609Z,101625.02
2023-02-12T01:08:05.868Z,101627.48
2023-02-12T01:10:38.234Z,101628.54
2023-02-12T01:13:12.162Z,101632.64
2023-02-12T01:15:45.332Z,101631.27
2023-02-12T01:18:17.876Z,101633.66
2023-02-12T01:20:50.323Z,101633.05
2023-02-12T01:23:22.565Z,101634.98
2023-02-12T01:25:55.292Z,101634.80
2023-02-12T01:28:27.957Z,101644.85
2023-02-12T01:31:00.451Z,101655.59
2023-02-12T01:33:32.956Z,101653.06
2023-02-12T01:36:05.503Z,101655.84
2023-02-12T01:38:38.024Z,101664.31
2023-02-12T01:41:13.238Z,101673.83
2023-02-12T01:43:46.575Z,101676.44
2023-02-12T01:46:19.445Z,101677.98
2023-02-12T01:48:51.851Z,101685.21
2023-02-12T01:51:25.539Z,101691.11
2023-02-12T01:54:00.893Z,101695.41
2023-02-12T01:56:34.506Z,101700.05
2023-02-12T01:59:07.618Z,101712.72
2023-02-12T02:01:40.194Z,101720.52
2023-02-12T02:04:16.818Z,101726.60
2023-02-12T02:06:52.833Z,101732.20
2023-02-12T02:09:25.902Z,101736.92
2023-02-12T02:12:18.390Z,101738.08
2023-02-12T02:14:52.298Z,101736.95
2023-02-12T02:17:37.748Z,101739.15
2023-02-12T02:20:33.797Z,101744.98
2023-02-12T02:23:35.225Z,101747.39
2023-02-12T02:26:35.068Z,101748.59
2023-02-12T02:29:31.753Z,101749.06
2023-02-12T02:32:09.143Z,101750.96
2023-02-12T02:34:49.417Z,101750.94
2023-02-12T02:37:28.755Z,101750.78
2023-02-12T02:40:06.960Z,101752.26
2023-02-12T02:42:45.014Z,101753.02
2023-02-12T02:45:21.985Z,101755.80
2023-02-12T02:47:57.234Z,101753.48
2023-02-12T02:50:31.987Z,101758.03
2023-02-12T02:53:08.389Z,101757.58
2023-02-12T02:55:45.385Z,101762.53
2023-02-12T02:58:22.396Z,101765.63
2023-02-12T03:01:00.476Z,101766.02
2023-02-12T03:03:39.415Z,101773.33
2023-02-12T03:06:16.612Z,101773.65
2023-02-12T03:08:52.148Z,101775.52
2023-02-12T03:11:28.015Z,101773.02
2023-02-12T03:14:06.250Z,101776.71
2023-02-12T03:16:45.393Z,101780.63
2023-02-12T03:19:21.544Z,101778.98
2023-02-12T03:21:59.967Z,101778.88
2023-02-12T03:24:37.373Z,101785.39
2023-02-12T03:27:15.004Z,101790.06
2023-02-12T03:29:47.432Z,101794.55
2023-02-12T03:32:31.632Z,101794.10
2023-02-12T03:35:16.338Z,101800.18
2023-02-12T03:37:58.657Z,101810.55
2023-02-12T03:40:36.176Z,101813.24
2023-02-12T03:43:16.163Z,101817.45
2023-02-12T03:45:53.059Z,101823.30
2023-02-12T03:48:30.280Z,101825.13
2023-02-12T03:51:12.401Z,101829.30
2023-02-12T03:53:44.791Z,101842.45
2023-02-12T03:56:23.656Z,101839.39
2023-02-12T03:58:56.036Z,101835.26
2023-02-12T04:01:29.910Z,101840.14
2023-02-12T04:04:04.802Z,101842.77
2023-02-12T04:06:37.466Z,101841.66
2023-02-12T04:09:13.766Z,101851.75
2023-02-12T04:12:00.192Z,101861.34
2023-02-12T04:14:42.518Z,101862.95
2023-02-12T04:17:27.583Z,101861.84
2023-02-12T04:20:11.701Z,101869.75
2023-02-12T04:22:55.462Z,101871.98
2023-02-12T04:25:44.509Z,101871.95
2023-02-12T04:28:26.906Z,101877.36
2023-02-12T04:31:05.144Z,101881.67
2023-02-12T04:33:47.418Z,101882.65
2023-02-12T04:36:26.306Z,101884.75
2023-02-12T04:39:03.457Z,101891.89
2023-02-12T04:41:36.249Z,101899.72
2023-02-12T04:44:20.891Z,101899.02
2023-02-12T04:46:53.727Z,101902.96
2023-02-12T04:49:26.825Z,101899.73
2023-02-12T04:51:59.498Z,101904.92
2023-02-12T04:54:31.797Z,101906.08
2023-02-12T04:57:04.317Z,101905.23
2023-02-12T04:59:36.688Z,101906.94
2023-02-12T05:02:08.846Z,101915.79
2023-02-12T05:04:40.998Z,101920.25
2023-02-12T05:07:13.530Z,101922.23
2023-02-12T05:09:45.931Z,101921.83
2023-02-12T05:12:19.293Z,101922.09
2023-02-12T05:14:51.422Z,101924.55
2023-02-12T05:17:24.826Z,101932.11
2023-02-12T05:19:57.047Z,101937.16
2023-02-12T05:22:29.202Z,101937.38
2023-02-12T05:25:01.547Z,101939.35
2023-02-12T05:27:34.961Z,101945.09
2023-02-12T05:30:10.684Z,101945.27
2023-02-12T05:32:42.994Z,101947.23
2023-02-12T05:35:15.344Z,101947.88
2023-02-12T05:37:47.504Z,101955.93
2023-02-12T05:40:22.976Z,101955.30
2023-02-12T05:42:55.044Z,101959.71
2023-02-12T05:45:28.178Z,101966.13
2023-02-12T05:48:00.394Z,101971.88
2023-02-12T05:50:32.736Z,101971.98
2023-02-12T05:53:05.302Z,101978.39
2023-02-12T05:55:37.699Z,101981.26
2023-02-12T05:58:11.006Z,101985.42
2023-02-12T06:00:44.287Z,101977.70
2023-02-12T06:03:16.656Z,101985.98
2023-02-12T06:05:53.899Z,101988.70
2023-02-12T06:08:26.490Z,101988.27
2023-02-12T06:11:03.436Z,101987.79
2023-02-12T06:13:36.052Z,101991.03
2023-02-12T06:16:17.274Z,101996.31
2023-02-12T06:18:50.117Z,102001.73
2023-02-12T06:21:23.907Z,102008.46
2023-02-12T06:23:56.530Z,102011.73
2023-02-12T06:26:29.308Z,102014.91
2023-02-12T06:29:02.210Z,102011.77
2023-02-12T06:31:36.991Z,102021.58
2023-02-12T06:34:12.470Z,102035.36
2023-02-12T06:36:46.400Z,102038.19
2023-02-12T06:39:19.445Z,102043.38
2023-02-12T06:41:51.938Z,102046.70
2023-02-12T06:44:24.362Z,102046.23
2023-02-12T06:46:57.945Z,102045.22
2023-02-12T06:49:30.508Z,102047.02
2023-02-12T06:52:03.513Z,102044.04
2023-02-12T06:54:36.004Z,102042.39
2023-02-12T06:57:08.492Z,102044.16
2023-02-12T06:59:40.929Z,102046.04
2023-02-12T07:02:13.920Z,102048.91
2023-02-12T07:04:46.228Z,102047.60
2023-02-12T07:07:18.692Z,102042.85
2023-02-12T07:09:51.235Z,102042.59
2023-02-12T07:12:23.483Z,102041.38
2023-02-12T07:14:55.848Z,102046.39
2023-02-12T07:17:30.277Z,102054.65
2023-02-12T07:20:02.670Z,102051.43
2023-02-12T07:22:36.597Z,102058.02
2023-02-12T07:25:09.424Z,102059.74
2023-02-12T07:27:41.926Z,102057.40
2023-02-12T07:30:15.875Z,102060.46
2023-02-12T07:32:48.239Z,102068.76
2023-02-12T07:35:20.607Z,102073.44
2023-02-12T07:37:52.933Z,102077.20
2023-02-12T07:40:25.224Z,102083.42
2023-02-12T07:42:59.109Z,102088.59
2023-02-12T07:45:31.443Z,102091.00
2023-02-12T07:48:04.001Z,102089.73
2023-02-12T07:50:36.373Z,102093.20
2023-02-12T07:53:08.779Z,102097.03
2023-02-12T07:55:41.104Z,102096.89
2023-02-12T07:58:13.397Z,102099.67
2023-02-12T08:00:45.730Z,102096.33
2023-02-12T08:03:18.221Z,102090.20
2023-02-12T08:05:50.539Z,102087.30
2023-02-12T08:08:22.860Z,102086.87
2023-02-12T08:10:56.806Z,102092.71
2023-02-12T08:13:29.118Z,102090.65
2023-02-12T08:16:05.199Z,102087.96
2023-02-12T08:18:38.137Z,102087.02
2023-02-12T08:21:12.722Z,102085.77
2023-02-12T08:23:45.298Z,102086.55
2023-02-12T08:26:19.846Z,102085.01
2023-02-12T08:28:54.611Z,102090.98
2023-02-12T08:31:28.882Z,102092.86
2023-02-12T08:34:01.789Z,102093.23
2023-02-12T08:36:39.223Z,102095.75
2023-02-12T08:39:11.969Z,102098.52
2023-02-12T08:41:44.574Z,102102.98
2023-02-12T08:44:17.341Z,102101.31
2023-02-12T08:46:51.424Z,102098.02
2023-02-12T08:49:27.408Z,102099.17
2023-02-12T08:52:02.715Z,102104.00
2023-02-12T08:54:35.065Z,102103.54
2023-02-12T08:57:07.330Z,102101.42
2023-02-12T08:59:39.660Z,102093.36
2023-02-12T09:02:13.279Z,102092.77
2023-02-12T09:04:45.627Z,102091.07
2023-02-12T09:07:18.077Z,102086.09
2023-02-12T09:09:50.449Z,102083.72
2023-02-12T09:12:23.001Z,102084.05
2023-02-12T09:14:55.342Z,102086.61
2023-02-12T09:17:28.797Z,102088.60
2023-02-12T09:20:02.394Z,102094.20
2023-02-12T09:22:38.217Z,102093.94
2023-02-12T09:25:11.030Z,102095.73
2023-02-12T09:27:43.388Z,102096.31
2023-02-12T09:30:18.881Z,102101.23
2023-02-12T09:32:51.204Z,102106.30
2023-02-12T09:35:23.806Z,102104.43
2023-02-12T09:37:56.466Z,102111.89
2023-02-12T09:40:37.211Z,102120.62
2023-02-12T09:43:20.971Z,102120.13
2023-02-12T09:46:01.939Z,102130.69
2023-02-12T09:48:55.116Z,102135.42
2023-02-12T09:51:29.501Z,102136.16
2023-02-12T09:54:07.639Z,102136.31
2023-02-12T09:56:42.620Z,102130.77
2023-02-12T09:59:32.990Z,102132.91
2023-02-12T10:02:08.030Z,102131.47
2023-02-12T10:04:51.595Z,102132.48
2023-02-12T10:07:42.299Z,102130.67
2023-02-12T10:10:28.808Z,102133.46
2023-02-12T10:13:05.306Z,102130.70
2023-02-12T10:15:47.481Z,102128.38
2023-02-12T10:18:51.431Z,102124.48
2023-02-12T10:21:37.869Z,102125.66
2023-02-12T10:24:25.705Z,102123.03
2023-02-12T10:27:01.631Z,102129.11
2023-02-12T10:29:39.877Z,102128.61
2023-02-12T10:32:20.803Z,102128.83
2023-02-12T10:34:53.825Z,102127.40
2023-02-12T10:37:41.187Z,102121.48
2023-02-12T10:40:21.791Z,102116.84
2023-02-12T10:42:55.524Z,102114.29
2023-02-12T10:45:33.048Z,102120.45
2023-02-12T10:48:12.542Z,102113.88
2023-02-12T10:50:57.116Z,102114.73
2023-02-12T10:53:34.335Z,102114.11
2023-02-12T10:56:17.453Z,102114.95
2023-02-12T10:58:59.511Z,102119.60
2023-02-12T11:01:34.571Z,102119.42
2023-02-12T11:07:09.859Z,102114.31
2023-02-12T11:09:46.677Z,102117.45
2023-02-12T11:12:32.244Z,102118.98
2023-02-12T11:15:14.594Z,102122.83
2023-02-12T11:17:57.520Z,102116.78
2023-02-12T11:20:33.646Z,102115.75
2023-02-12T11:23:08.042Z,102107.82
2023-02-12T11:25:55.647Z,102100.70
2023-02-12T11:28:29.003Z,102100.19
2023-02-12T11:31:03.534Z,102096.05
2023-02-12T11:33:38.074Z,102093.54
2023-02-12T11:36:22.222Z,102089.98
2023-02-12T11:38:56.393Z,102092.48
2023-02-12T11:41:34.695Z,102095.94
2023-02-12T11:44:14.007Z,102091.72
2023-02-12T11:46:52.160Z,102089.29
2023-02-12T11:49:28.541Z,102086.37
2023-02-12T11:52:04.028Z,102088.54
2023-02-12T11:54:41.896Z,102083.54
2023-02-12T11:57:39.243Z,102079.74
2023-02-12T12:00:18.813Z,102082.34
2023-02-12T12:03:03.716Z,102085.02
2023-02-12T12:05:41.775Z,102082.72
2023-02-12T12:08:26.309Z,102078.05
2023-02-12T12:11:04.086Z,102077.48
2023-02-12T12:13:40.657Z,102074.55
2023-02-12T12:16:34.157Z,102068.78
2023-02-12T12:19:29.870Z,102068.91
2023-02-12T12:22:10.130Z,102070.00
2023-02-12T12:24:46.416Z,102070.80
2023-02-12T12:27:42.621Z,102069.16
2023-02-12T12:30:22.880Z,102065.59
2023-02-12T12:32:59.278Z,102060.67
2023-02-12T12:35:45.550Z,102059.47
2023-02-12T12:38:29.503Z,102056.58
2023-02-12T12:41:09.186Z,102055.37
2023-02-12T12:43:52.213Z,102058.27
2023-02-12T12:46:35.157Z,102054.59
2023-02-12T12:49:30.255Z,102050.25
2023-02-12T12:52:30.800Z,102050.38
2023-02-12T12:55:24.165Z,102050.35
2023-02-12T12:58:07.234Z,102041.39
2023-02-12T13:00:50.932Z,102039.64
2023-02-12T13:03:53.898Z,102040.71
2023-02-12T13:06:52.815Z,102042.00
2023-02-12T13:09:50.173Z,102041.61
2023-02-12T13:12:44.562Z,102037.05
2023-02-12T13:15:26.827Z,102033.67
2023-02-12T13:18:05.594Z,102031.59
2023-02-12T13:20:48.890Z,102033.96
2023-02-12T13:23:26.976Z,102036.92
2023-02-12T13:26:08.923Z,102031.23
2023-02-12T13:28:43.933Z,102034.18
2023-02-12T13:31:32.966Z,102033.96
2023-02-12T13:34:08.905Z,102036.13
2023-02-12T13:36:40.006Z,102033.17
2023-02-12T13:39:24.068Z,102035.95
2023-02-12T13:42:17.744Z,102041.33
2023-02-12T13:45:01.309Z,102042.52
2023-02-12T13:47:44.566Z,102045.12
2023-02-12T13:50:43.092Z,102045.92
2023-02-12T13:53:23.507Z,102041.33
2023-02-12T13:56:07.340Z,102035.18
2023-02-12T13:58:50.678Z,102028.72
2023-02-12T14:01:43.309Z,102031.13
2023-02-12T14:04:27.782Z,102031.90
2023-02-12T14:07:03.507Z,102033.21
2023-02-12T14:09:40.691Z,102030.02
2023-02-12T14:12:16.451Z,102024.92
2023-02-12T14:14:51.808Z,102029.41
2023-02-12T14:17:54.085Z,102031.71
2023-02-12T14:20:29.685Z,102036.61
2023-02-12T14:23:20.078Z,102030.98
2023-02-12T14:26:00.344Z,102025.91
2023-02-12T14:28:44.099Z,102026.54
2023-02-12T14:31:32.998Z,102031.58
2023-02-12T14:34:52.140Z,102029.44
2023-02-12T14:37:42.653Z,102019.90
2023-02-12T14:40:47.247Z,102004.85
2023-02-12T14:43:56.290Z,102005.11
2023-02-12T14:46:49.764Z,102009.27
2023-02-12T14:49:28.021Z,102015.29
2023-02-12T14:52:05.149Z,102029.11
2023-02-12T14:54:42.564Z,102041.11
2023-02-12T14:57:25.308Z,102047.13
2023-02-12T15:00:00.342Z,102051.40
2023-02-12T15:02:36.820Z,102052.96
2023-02-12T15:05:19.719Z,102048.08
2023-02-12T15:07:58.488Z,102040.17
2023-02-12T15:10:35.718Z,102035.29
2023-02-12T15:13:19.663Z,102030.98
2023-02-12T15:15:57.545Z,102025.31
2023-02-12T15:18:43.769Z,102020.09
2023-02-12T15:21:23.614Z,102024.59
2023-02-12T15:24:05.822Z,102027.44
2023-02-12T15:26:42.275Z,102013.55
2023-02-12T15:29:25.522Z,102006.66
2023-02-12T15:31:59.776Z,101999.80
2023-02-12T15:34:36.301Z,102004.53
2023-02-12T15:37:10.777Z,102003.21
2023-02-12T15:39:48.186Z,102000.94
2023-02-12T15:42:32.805Z,102002.17
2023-02-12T15:45:24.487Z,102005.99
2023-02-12T15:48:08.596Z,102002.31
2023-02-12T15:50:50.802Z,102002.38
2023-02-12T15:53:24.310Z,102002.80
2023-02-12T15:55:56.914Z,102005.27
2023-02-12T15:58:31.865Z,102002.98
2023-02-12T16:01:07.694Z,102007.16
2023-02-12T16:03:42.119Z,102010.08
2023-02-12T16:06:16.952Z,102014.88
2023-02-12T16:08:54.310Z,102011.23
2023-02-12T16:11:29.753Z,102006.76
2023-02-12T16:14:05.635Z,102001.14
2023-02-12T16:16:49.072Z,102003.05
2023-02-12T16:19:23.489Z,102014.77
2023-02-12T16:22:01.826Z,102015.98
2023-02-12T16:24:38.502Z,102014.98
2023-02-12T16:27:19.092Z,102015.89
2023-02-12T16:29:53.615Z,102013.46
2023-02-12T16:32:37.469Z,102003.29
2023-02-12T16:35:27.777Z,102006.11
2023-02-12T16:38:04.861Z,102007.86
2023-02-12T16:40:38.763Z,102005.96
2023-02-12T16:43:28.449Z,102006.11
2023-02-12T16:46:09.285Z,102005.98
2023-02-12T16:48:44.254Z,102005.63
2023-02-12T16:51:28.174Z,102002.36
2023-02-12T16:54:01.869Z,102001.11
2023-02-12T16:56:38.778Z,102000.30
2023-02-12T16:59:12.029Z,101994.56
2023-02-12T17:01:57.170Z,101991.20
2023-02-12T17:04:28.010Z,101994.77
2023-02-12T17:07:00.412Z,101991.94
2023-02-12T17:09:32.579Z,101994.92
2023-02-12T17:12:04.868Z,101990.89
2023-02-12T17:14:37.069Z,101991.68
2023-02-12T17:17:09.554Z,101986.52
2023-02-12T17:19:42.093Z,101984.94
2023-02-12T17:22:22.586Z,101982.95
2023-02-12T17:24:54.856Z,101987.44
2023-02-12T17:27:27.136Z,101978.09
2023-02-12T17:29:59.298Z,101976.59
2023-02-12T17:32:32.051Z,101974.65
2023-02-12T17:35:06.201Z,101972.13
2023-02-12T17:37:38.462Z,101975.80
2023-02-12T17:40:15.373Z,101978.16
2023-02-12T17:42:47.540Z,101981.87
2023-02-12T17:45:20.010Z,101977.62
2023-02-12T17:47:52.139Z,101972.27
2023-02-12T17:50:24.424Z,101965.12
2023-02-12T17:52:56.644Z,101960.77
2023-02-12T17:55:28.905Z,101955.54
2023-02-12T17:58:03.215Z,101955.59
2023-02-12T18:00:35.432Z,101954.65
2023-02-12T18:03:07.877Z,101949.92
2023-02-12T18:05:45.907Z,101945.73
2023-02-12T18:08:18.236Z,101948.56
2023-02-12T18:10:50.445Z,101947.64
2023-02-12T18:13:22.726Z,101945.34
2023-02-12T18:15:55.021Z,101947.93
2023-02-12T18:18:27.320Z,101942.95
2023-02-12T18:20:59.751Z,101936.66
2023-02-12T18:23:32.004Z,101936.20
2023-02-12T18:26:08.217Z,101933.98
2023-02-12T18:28:41.056Z,101937.54
2023-02-12T18:31:13.983Z,101936.58
2023-02-12T18:33:46.398Z,101941.71
2023-02-12T18:36:20.560Z,101938.04
2023-02-12T18:38:54.208Z,101937.30
2023-02-12T18:41:28.365Z,101932.80
2023-02-12T18:44:01.093Z,101933.01
2023-02-12T18:46:34.043Z,101929.34
2023-02-12T18:49:07.418Z,101928.20
2023-02-12T18:51:41.299Z,101925.98
2023-02-12T18:54:15.348Z,101922.58
2023-02-12T18:56:50.776Z,101924.36
2023-02-12T18:59:26.270Z,101922.55
2023-02-12T19:01:59.521Z,101921.23
2023-02-12T19:04:31.935Z,101915.70
2023-02-12T19:07:04.066Z,101914.96
2023-02-12T19:09:36.542Z,101909.88
2023-02-12T19:12:11.211Z,101915.27
2023-02-12T19:14:43.410Z,101911.33
2023-02-12T19:17:15.599Z,101906.12
2023-02-12T19:19:50.371Z,101905.13
2023-02-12T19:22:22.775Z,101902.67
2023-02-12T19:24:55.002Z,101902.17
2023-02-12T19:27:27.188Z,101907.20
2023-02-12T19:30:01.078Z,101906.73
2023-02-12T19:32:33.563Z,101906.05
2023-02-12T19:35:05.949Z,101906.75
2023-02-12T19:37:38.187Z,101901.73
2023-02-12T19:40:12.573Z,101905.17
2023-02-12T19:42:44.749Z,101905.23
2023-02-12T19:45:17.080Z,101906.89
2023-02-12T19:47:50.921Z,101904.34
2023-02-12T19:50:23.117Z,101903.85
2023-02-12T19:52:55.263Z,101903.38
2023-02-12T19:55:27.469Z,101899.53
2023-02-12T19:57:59.763Z,101892.50
2023-02-12T20:00:31.971Z,101891.36
2023-02-12T20:03:04.290Z,101890.02
2023-02-12T20:05:44.533Z,101883.81
2023-02-12T20:08:16.716Z,101882.73
2023-02-12T20:10:49.016Z,101884.48
2023-02-12T20:13:22.660Z,101884.63
2023-02-12T20:15:54.862Z,101880.34
2023-02-12T20:18:26.975Z,101876.98
2023-02-12T20:20:59.162Z,101879.54
2023-02-12T20:23:31.275Z,101877.57
2023-02-12T20:26:06.843Z,101880.27
2023-02-12T20:28:39.741Z,101882.73
2023-02-12T20:31:14.186Z,101875.88
2023-02-12T20:33:47.154Z,101885.27
2023-02-12T20:36:19.346Z,101886.95
2023-02-12T20:38:56.992Z,101886.95
2023-02-12T20:41:30.016Z,101885.23
2023-02-12T20:44:04.211Z,101881.52
2023-02-12T20:46:39.399Z,101874.65
2023-02-12T20:49:13.921Z,101874.63
2023-02-12T20:51:46.862Z,101871.27
2023-02-12T20:54:19.306Z,101874.17
2023-02-12T20:56:52.217Z,101875.05
2023-02-12T20:59:24.622Z,101875.13
2023-02-12T21:01:56.833Z,101871.48
2023-02-12T21:04:31.754Z,101873.94
2023-02-12T21:07:04.603Z,101875.70
2023-02-12T21:09:36.796Z,101873.15
2023-02-12T21:12:09.279Z,101871.56
2023-02-12T21:14:41.646Z,101876.48
2023-02-12T21:17:13.832Z,101874.39
2023-02-12T21:19:46.103Z,101875.50
2023-02-12T21:22:18.630Z,101878.20
2023-02-12T21:24:50.874Z,101881.67
2023-02-12T21:27:23.172Z,101872.20
2023-02-12T21:29:55.416Z,101866.61
2023-02-12T21:32:27.935Z,101864.19
2023-02-12T21:35:00.288Z,101853.03
2023-02-12T21:37:32.574Z,101853.30
2023-02-12T21:40:05.069Z,101855.67
2023-02-12T21:42:37.245Z,101859.30
2023-02-12T21:45:11.836Z,101861.02
2023-02-12T21:47:44.035Z,101862.19
2023-02-12T21:50:16.372Z,101863.02
2023-02-12T21:52:48.680Z,101858.35
2023-02-12T21:55:20.927Z,101856.88
2023-02-12T21:57:53.281Z,101857.61
2023-02-12T22:00:25.990Z,101861.73
2023-02-12T22:02:58.257Z,101862.34
2023-02-12T22:05:34.521Z,101867.29
2023-02-12T22:08:07.003Z,101873.23
2023-02-12T22:10:39.807Z,101866.51
2023-02-12T22:13:11.979Z,101871.19
2023-02-12T22:15:44.168Z,101868.41
2023-02-12T22:18:16.511Z,101868.73
2023-02-12T22:20:48.706Z,101865.95
2023-02-12T22:23:21.008Z,101867.90
2023-02-12T22:25:53.555Z,101866.09
2023-02-12T22:28:25.901Z,101867.77
2023-02-12T22:30:58.376Z,101869.16
2023-02-12T22:33:30.848Z,101866.63
2023-02-12T22:36:05.958Z,101861.27
2023-02-12T22:38:39.385Z,101862.98
2023-02-12T22:41:12.197Z,101856.40
2023-02-12T22:43:44.665Z,101851.64
2023-02-12T22:46:17.826Z,101850.66
2023-02-12T22:48:50.089Z,101845.47
2023-02-12T22:51:26.684Z,101839.82
2023-02-12T22:53:59.194Z,101835.27
2023-02-12T22:56:31.472Z,101832.98
2023-02-12T22:59:04.200Z,101831.71
2023-02-12T23:01:36.407Z,101830.51
2023-02-12T23:04:09.314Z,101822.66
2023-02-12T23:06:41.575Z,101818.99
2023-02-12T23:09:16.948Z,101820.98
2023-02-12T23:11:49.982Z,101816.79
2023-02-12T23:14:22.356Z,101813.65
2023-02-12T23:16:54.779Z,101817.66
2023-02-12T23:19:27.227Z,101813.48
2023-02-12T23:21:59.559Z,101809.71
2023-02-12T23:24:31.921Z,101809.16
2023-02-12T23:27:04.146Z,101807.99
2023-02-12T23:29:36.307Z,101805.27
2023-02-12T23:32:08.894Z,101799.27
2023-02-12T23:34:42.358Z,101798.24
2023-02-12T23:37:14.481Z,101800.40
2023-02-12T23:39:46.702Z,101797.03
2023-02-12T23:42:19.233Z,101795.88
2023-02-12T23:44:51.375Z,101791.30
2023-02-12T23:47:23.491Z,101790.23
2023-02-12T23:49:55.748Z,101782.38
2023-02-12T23:52:27.956Z,101778.34
2023-02-12T23:55:00.133Z,101777.27
2023-02-12T23:57:32.319Z,101780.38
